KDNV/DNV METAR and TAF weather

Enter ICAO airport designator
Station Type Date Time Source
KDNV METAR 2021/01/17 18:55 UTC NOAA

KDNV 171855Z AUTO 27012KT 10SM OVC016 00/M03 A2974 RMK AO2 T10051035


Station Type Date Time Source
KDNV Decoded METAR 2021/01/17 18:55 UTC NOAA

Danville, Vermilion County Airport, IL, United States (KDNV) 40-11-58N 087-35-44W
Jan 17, 2021 - 01:55 PM EST / 2021.01.17 1855 UTC
Wind: from the W (270 degrees) at 14 MPH (12 KT):0
Visibility: 10 mile(s):0
Sky conditions: overcast
Temperature: 31.1 F (-0.5 C)
Windchill: 21 F (-6 C):1
Dew Point: 25.7 F (-3.5 C)
Relative Humidity: 80%
Pressure (altimeter): 29.74 in. Hg (1007 hPa)
ob: KDNV 171855Z AUTO 27012KT 10SM OVC016 00/M03 A2974 RMK AO2 T10051035
cycle: 19

Station Type Date Time Source
KDNV TAF UTC NOAA

Error!

Example: see airport list